Detall de PIREP

Printer-friendly versionPDF version

[2011/04/26 15:24:00]
Flight IATA:CT1005
Pilot Number:042
Company ICAO:CAT
Aircraft Type:B763/F
PAX:200
Departing Airport: LEVC
Destination Airport: LKPR
Alternate Airport:LKTB
Online: VATSIM
Route:SOPET UM985 SUMIR UM726 KOGOL UN871 ABABI UZ39 GOSEK
Flight Level:F370
No Slew and time accel
No pause
Crash detect
Detect pilot in Cockpit between each 30 and 45 minutes
15:24 Zero fuel Weight: 244976 Lbs, Fuel Weight: 161581 Lbs
15:24 VATSIM:LEVC 261500Z 13009KT 100V160 9999 FEW025CB 24/11 Q1012 NOSIG
15:24 VATSIM:LKPR 261500Z 09010KT 9999 SCT040 12/08 Q1016 NOSIG
15:24 VOICE CATALONIAN/EU TOUR
15:37 Parking Brakes off
15:41 Take-off
15:41 Take off Weight: 404443 Lbs
15:41 Wind: 137 @ 009 Knots Heading: 116
15:41 POS N39 29 21 W000 28 56
15:41 Gear Up: 179 Knots
15:41 Flaps:3 at 179 Knots
15:41 Flaps:2 at 187 Knots
15:42 Flaps:1 at 210 Knots
15:42 Flaps:0 at 223 Knots
15:56 Wind:108@015 Knots Heading: 048 Ground Speed: 447 Knots Altitude 33123 ft
15:59 TOC
15:59 Fuel Weight: 150889 Lb
16:11 Wind:008@021 Knots Heading: 068 Ground Speed: 460 Knots Altitude 37949 ft
16:26 Wind:105@017 Knots Heading: 041 Ground Speed: 464 Knots Altitude 36889 ft
16:41 Wind:156@008 Knots Heading: 055 Ground Speed: 470 Knots Altitude 36879 ft
16:56 Wind:003@015 Knots Heading: 033 Ground Speed: 456 Knots Altitude 36856 ft
17:11 Wind:338@018 Knots Heading: 053 Ground Speed: 464 Knots Altitude 36955 ft
17:36 TOD
17:36 Fuel Weight: 130457 Lb
17:54 Flaps:1 at 223 Knots
17:54 Flaps:2 at 223 Knots
18:01 Flaps:3 at 167 Knots
18:01 Flaps:4 at 167 Knots
18:01 Flaps:5 at 153 Knots
18:01 Gear Down: 152 Knots
18:05 TouchDown:Rate -259 ft/min Speed: 141 Knots
18:06 VATSIM:LKPR 261730Z 09009KT 9999 FEW025 BKN049 12/08 Q1016 NOSIG
18:06 Land
18:06 Wind:089@009 Knots
18:06 Heading: 063
18:06 Flight Duration: 02:25
18:06 Landing Weight: 370883 Lbs
18:06 POS N50 06 30 E014 14 53
18:13 Parking brakes on
18:13 Block to Block Duration: 02:36
18:13 Final Fuel: 124396 Lbls
18:13 Spent Fuel: 37184 Lbls
18:13 Flight Length: 766 NM
18:13 TOD Land Length: 00 NM

Exportar CSV

Powered by Drupal - Modified by Danger4k